Time;durP1;ratioP1;P1;durP2;ratioP2;P2;SDS_P1;SDS_P2;PMS_P1;PMS_P2;Temp;Humidity;BMP_temperature;BMP_pressure;BME280_temperature;BME280_humidity;BME280_pressure;Samples;Min_cycle;Max_cycle;Signal;HPM_P1;HPM_P2
2022/10/01 00:02:01;;;;;;;;;;;;;;;;;;5089266;28;19939;-74
2022/10/01 00:04:28;;;;;;;;;;;;;;;;;;5084080;28;19932;-75
2022/10/01 00:06:58;;;;;;;;;;;;;;;;;;5087337;28;19925;-77
2022/10/01 00:09:25;;;;;;;;;;;;;;;;;;5084523;28;20006;-75
2022/10/01 00:11:52;;;;;;;;;;;;;;;;;;5081583;28;19951;-75
2022/10/01 00:14:19;;;;;;;;;;;;;;;;;;5086700;28;19936;-76
2022/10/01 00:16:46;;;;;;;;;;;;;;;;;;5089846;28;20650;-73
2022/10/01 00:19:14;;;;;;;;;;;;;;;;;;5089516;28;19923;-73
2022/10/01 00:21:41;;;;;;;;;;;;;;;;;;5085350;28;20314;-76
2022/10/01 00:24:09;;;;;;;;;;;;;;;;;;5085966;28;20279;-73
2022/10/01 00:26:37;;;;;;;;;;;;;;;;;;5085748;28;19960;-76
2022/10/01 00:29:04;;;;;;;;;;;;;;;;;;5085355;28;20011;-74
2022/10/01 00:31:31;;;;;;;;;;;;;;;;;;5085558;28;20271;-74
2022/10/01 00:33:58;;;;;;;;;;;;;;;;;;5084522;28;19928;-74
2022/10/01 00:36:25;;;;;;;;;;;;;;;;;;5077853;28;19951;-76
2022/10/01 00:38:53;;;;;;;;;;;;;;;;;;5084669;28;19935;-76
2022/10/01 00:41:20;;;;;;;;;;;;;;;;;;5086516;28;19957;-76
2022/10/01 00:43:47;;;;;;;;;;;;;;;;;;5085310;28;19935;-77
2022/10/01 00:46:14;;;;;;;;;;;;;;;;;;5084016;28;19985;-75
2022/10/01 00:48:41;;;;;;;;;;;;;;;;;;5081244;28;19928;-74
2022/10/01 00:51:08;;;;;;;;;;;;;;;;;;5085337;28;20346;-71
2022/10/01 00:53:36;;;;;;;;;;;;;;;;;;5083953;28;19932;-73
2022/10/01 00:56:03;;;;;;;;;;;;;;;;;;5090310;28;20274;-75
2022/10/01 00:58:30;;;;;;;;;;;;;;;;;;5083991;28;19932;-75
2022/10/01 01:00:57;;;;;;;;;;;;;;;;;;5085776;28;19935;-75
2022/10/01 01:03:25;;;;;;;;;;;;;;;;;;5084303;28;20275;-76
2022/10/01 01:05:52;;;;;;;;;;;;;;;;;;5088179;28;20010;-76
2022/10/01 01:08:19;;;;;;;;;;;;;;;;;;5086438;28;20099;-76
2022/10/01 01:10:47;;;;;;;;;;;;;;;;;;5085622;28;19932;-76
2022/10/01 01:13:14;;;;;;;;;;;;;;;;;;5088296;28;19939;-74
2022/10/01 01:15:41;;;;;;;;;;;;;;;;;;5083538;28;20395;-75
2022/10/01 01:18:09;;;;;;;;;;;;;;;;;;5082452;28;19925;-75
2022/10/01 01:20:36;;;;;;;;;;;;;;;;;;5088446;28;19928;-76
2022/10/01 01:23:03;;;;;;;;;;;;;;;;;;5076669;28;19931;-75
2022/10/01 01:25:30;;;;;;;;;;;;;;;;;;5088465;28;20497;-75
2022/10/01 01:27:57;;;;;;;;;;;;;;;;;;5083316;28;19932;-74
2022/10/01 01:30:24;;;;;;;;;;;;;;;;;;5083683;28;19928;-76
2022/10/01 01:32:51;;;;;;;;;;;;;;;;;;5083494;28;19928;-75
2022/10/01 01:35:18;;;;;;;;;;;;;;;;;;5087544;28;19928;-78
2022/10/01 01:37:45;;;;;;;;;;;;;;;;;;5082534;28;19932;-76
2022/10/01 01:40:12;;;;;;;;;;;;;;;;;;5084986;28;19970;-75
2022/10/01 01:42:39;;;;;;;;;;;;;;;;;;5084107;28;20327;-77
2022/10/01 01:45:07;;;;;;;;;;;;;;;;;;5086502;28;19927;-77
2022/10/01 01:47:34;;;;;;;;;;;;;;;;;;5084145;28;19928;-75
2022/10/01 01:50:01;;;;;;;;;;;;;;;;;;5089268;28;19931;-77
2022/10/01 01:52:28;;;;;;;;;;;;;;;;;;5088931;28;19973;-75
2022/10/01 01:54:55;;;;;;;;;;;;;;;;;;5088718;28;19936;-75
2022/10/01 01:57:23;;;;;;;;;;;;;;;;;;5089125;28;20326;-77
2022/10/01 01:59:50;;;;;;;;;;;;;;;;;;5090821;28;19927;-77
2022/10/01 02:02:17;;;;;;;;;;;;;;;;;;5089600;28;19951;-78
2022/10/01 02:04:44;;;;;;;;;;;;;;;;;;5089053;28;19943;-77
2022/10/01 02:07:14;;;;;;;;;;;;;;;;;;5095795;28;20292;-72
2022/10/01 02:09:41;;;;;;;;;;;;;;;;;;5079800;28;19975;-74
2022/10/01 02:12:08;;;;;;;;;;;;;;;;;;5077809;28;20431;-74
2022/10/01 02:14:35;;;;;;;;;;;;;;;;;;5073002;28;19941;-74
2022/10/01 02:17:02;;;;;;;;;;;;;;;;;;5091134;28;19924;-76
2022/10/01 02:19:29;;;;;;;;;;;;;;;;;;5090891;28;20486;-76
2022/10/01 02:21:56;;;;;;;;;;;;;;;;;;5089533;28;19936;-76
2022/10/01 02:24:23;;;;;;;;;;;;;;;;;;5086151;28;19970;-77
2022/10/01 02:26:50;;;;;;;;;;;;;;;;;;5090635;28;19928;-76
2022/10/01 02:29:17;;;;;;;;;;;;;;;;;;5089930;28;19967;-75
2022/10/01 02:31:45;;;;;;;;;;;;;;;;;;5089694;28;19924;-74
2022/10/01 02:34:14;;;;;;;;;;;;;;;;;;5090346;28;19924;-73
2022/10/01 02:36:41;;;;;;;;;;;;;;;;;;5087414;28;19928;-75
2022/10/01 02:39:08;;;;;;;;;;;;;;;;;;5091388;28;19934;-74
2022/10/01 02:41:35;;;;;;;;;;;;;;;;;;5087124;28;19947;-74
2022/10/01 02:44:03;;;;;;;;;;;;;;;;;;5085352;28;19936;-74
2022/10/01 02:46:30;;;;;;;;;;;;;;;;;;5086923;28;19932;-74
2022/10/01 02:48:57;;;;;;;;;;;;;;;;;;5086286;28;19932;-74
2022/10/01 02:51:24;;;;;;;;;;;;;;;;;;5089145;28;19924;-74
2022/10/01 02:53:51;;;;;;;;;;;;;;;;;;5092176;28;19928;-75
2022/10/01 02:57:21;;;;;;;;;;;;;;;;;;5086885;28;19932;-73
2022/10/01 02:59:06;;;;;;;;;;;;;;;;;;5077888;28;19925;-74
2022/10/01 03:01:33;;;;;;;;;;;;;;;;;;5086785;28;20311;-74
2022/10/01 03:04:01;;;;;;;;;;;;;;;;;;5085520;28;20410;-73
2022/10/01 03:06:28;;;;;;;;;;;;;;;;;;5087809;28;19928;-73
2022/10/01 03:08:56;;;;;;;;;;;;;;;;;;5085794;28;19931;-73
2022/10/01 03:11:23;;;;;;;;;;;;;;;;;;5077295;28;20538;-73
2022/10/01 03:13:50;;;;;;;;;;;;;;;;;;5093524;28;19928;-73
2022/10/01 03:16:17;;;;;;;;;;;;;;;;;;5079633;28;19939;-74
2022/10/01 03:18:44;;;;;;;;;;;;;;;;;;5087619;28;19932;-74
2022/10/01 03:21:11;;;;;;;;;;;;;;;;;;5084446;28;19932;-72
2022/10/01 03:23:38;;;;;;;;;;;;;;;;;;5088079;28;20259;-73
2022/10/01 03:26:05;;;;;;;;;;;;;;;;;;5089492;28;19935;-75
2022/10/01 03:28:32;;;;;;;;;;;;;;;;;;5092258;28;19928;-76
2022/10/01 03:30:59;;;;;;;;;;;;;;;;;;5084507;28;19932;-77
2022/10/01 03:33:26;;;;;;;;;;;;;;;;;;5093056;28;19930;-80
2022/10/01 03:35:53;;;;;;;;;;;;;;;;;;5085077;28;19974;-76
2022/10/01 03:38:20;;;;;;;;;;;;;;;;;;5091743;28;19936;-76
2022/10/01 03:40:47;;;;;;;;;;;;;;;;;;5089864;28;19936;-77
2022/10/01 03:43:14;;;;;;;;;;;;;;;;;;5086843;28;19992;-79
2022/10/01 03:45:41;;;;;;;;;;;;;;;;;;5090160;28;19931;-77
2022/10/01 03:48:08;;;;;;;;;;;;;;;;;;5092593;28;20433;-76
2022/10/01 03:50:36;;;;;;;;;;;;;;;;;;5078888;28;19927;-78
2022/10/01 03:53:04;;;;;;;;;;;;;;;;;;5088519;28;19938;-75
2022/10/01 03:55:31;;;;;;;;;;;;;;;;;;5078299;28;19987;-77
2022/10/01 03:57:58;;;;;;;;;;;;;;;;;;5082980;28;19932;-77
2022/10/01 04:00:25;;;;;;;;;;;;;;;;;;5081573;28;19928;-75
2022/10/01 04:02:52;;;;;;;;;;;;;;;;;;5091824;28;19935;-77
2022/10/01 04:05:19;;;;;;;;;;;;;;;;;;5080362;28;19924;-77
2022/10/01 04:07:47;;;;;;;;;;;;;;;;;;5084419;28;19929;-79
2022/10/01 04:10:14;;;;;;;;;;;;;;;;;;5088176;28;19924;-79
2022/10/01 04:12:41;;;;;;;;;;;;;;;;;;5087243;28;19930;-78
2022/10/01 04:15:08;;;;;;;;;;;;;;;;;;5098950;28;19928;-74
2022/10/01 04:17:35;;;;;;;;;;;;;;;;;;5087551;28;19932;-77
2022/10/01 04:20:02;;;;;;;;;;;;;;;;;;5074485;28;19929;-75
2022/10/01 04:22:29;;;;;;;;;;;;;;;;;;5088347;28;19971;-75
2022/10/01 04:24:56;;;;;;;;;;;;;;;;;;5084154;28;19928;-76
2022/10/01 04:27:23;;;;;;;;;;;;;;;;;;5091318;28;19927;-73
2022/10/01 04:29:50;;;;;;;;;;;;;;;;;;5081289;28;20650;-76
2022/10/01 04:32:20;;;;;;;;;;;;;;;;;;5091857;28;19932;-77
2022/10/01 04:34:53;;;;;;;;;;;;;;;;;;5091715;28;19939;-73
2022/10/01 04:37:20;;;;;;;;;;;;;;;;;;5094797;28;19928;-77
2022/10/01 04:39:47;;;;;;;;;;;;;;;;;;5089162;28;19932;-74
2022/10/01 04:42:14;;;;;;;;;;;;;;;;;;5086809;28;20011;-77
2022/10/01 04:44:41;;;;;;;;;;;;;;;;;;5084813;28;19927;-73
2022/10/01 04:47:08;;;;;;;;;;;;;;;;;;5098041;28;20263;-75
2022/10/01 04:49:35;;;;;;;;;;;;;;;;;;5087598;28;19931;-76
2022/10/01 04:52:02;;;;;;;;;;;;;;;;;;5092868;28;20394;-75
2022/10/01 04:54:29;;;;;;;;;;;;;;;;;;5086917;28;19931;-77
2022/10/01 04:56:57;;;;;;;;;;;;;;;;;;5086393;28;19932;-76
2022/10/01 04:59:24;;;;;;;;;;;;;;;;;;5088292;28;19931;-78
2022/10/01 05:01:51;;;;;;;;;;;;;;;;;;5096484;28;19927;-80
2022/10/01 05:04:18;;;;;;;;;;;;;;;;;;5086912;28;19924;-79
2022/10/01 05:06:45;;;;;;;;;;;;;;;;;;5083305;28;19943;-75
2022/10/01 05:09:13;;;;;;;;;;;;;;;;;;5086598;28;19935;-75
2022/10/01 05:11:40;;;;;;;;;;;;;;;;;;5087798;28;19932;-79
2022/10/01 05:14:07;;;;;;;;;;;;;;;;;;5087725;28;19931;-80
2022/10/01 05:16:34;;;;;;;;;;;;;;;;;;5082192;28;20546;-78
2022/10/01 05:19:01;;;;;;;;;;;;;;;;;;5083970;28;20429;-79
2022/10/01 05:21:28;;;;;;;;;;;;;;;;;;5084535;28;19935;-79
2022/10/01 05:23:55;;;;;;;;;;;;;;;;;;5080382;28;19929;-77
2022/10/01 05:26:22;;;;;;;;;;;;;;;;;;5078833;28;19928;-78
2022/10/01 05:28:50;;;;;;;;;;;;;;;;;;5084535;28;19924;-79
2022/10/01 05:31:17;;;;;;;;;;;;;;;;;;5079657;28;19924;-80
2022/10/01 05:33:44;;;;;;;;;;;;;;;;;;5089026;28;20547;-81
2022/10/01 05:36:11;;;;;;;;;;;;;;;;;;5084482;28;19928;-77
2022/10/01 05:38:38;;;;;;;;;;;;;;;;;;5082542;28;19931;-71
2022/10/01 05:41:05;;;;;;;;;;;;;;;;;;5079947;28;19931;-79
2022/10/01 05:43:32;;;;;;;;;;;;;;;;;;5085940;28;19950;-75
2022/10/01 05:45:59;;;;;;;;;;;;;;;;;;5083770;28;19928;-78
2022/10/01 05:48:26;;;;;;;;;;;;;;;;;;5080747;28;19932;-77
2022/10/01 05:50:53;;;;;;;;;;;;;;;;;;5085056;28;19928;-78
2022/10/01 05:53:21;;;;;;;;;;;;;;;;;;5087194;28;19924;-78
2022/10/01 05:55:48;;;;;;;;;;;;;;;;;;5084166;28;19938;-74
2022/10/01 05:58:15;;;;;;;;;;;;;;;;;;5087069;28;19928;-75
2022/10/01 06:00:42;;;;;;;;;;;;;;;;;;5089403;28;19928;-76
2022/10/01 06:03:11;;;;;;;;;;;;;;;;;;5088720;28;19946;-77
2022/10/01 06:05:38;;;;;;;;;;;;;;;;;;5091473;28;19982;-74
2022/10/01 06:08:05;;;;;;;;;;;;;;;;;;5090945;28;19931;-76
2022/10/01 06:10:32;;;;;;;;;;;;;;;;;;5088891;28;19932;-77
2022/10/01 06:13:00;;;;;;;;;;;;;;;;;;5096351;28;19924;-78
2022/10/01 06:15:27;;;;;;;;;;;;;;;;;;5090293;28;19968;-76
2022/10/01 06:17:54;;;;;;;;;;;;;;;;;;5086457;28;19931;-79
2022/10/01 06:20:22;;;;;;;;;;;;;;;;;;5090892;28;19931;-76
2022/10/01 06:22:49;;;;;;;;;;;;;;;;;;5088487;28;19940;-78
2022/10/01 06:25:17;;;;;;;;;;;;;;;;;;5090900;28;19935;-78
2022/10/01 06:27:44;;;;;;;;;;;;;;;;;;5091402;28;19925;-78
2022/10/01 06:30:10;;;;;;;;;;;;;;;;;;5092964;28;19974;-71
2022/10/01 06:32:38;;;;;;;;;;;;;;;;;;5093282;28;19928;-77
2022/10/01 06:35:06;;;;;;;;;;;;;;;;;;5094441;28;19924;-78
2022/10/01 06:37:33;;;;;;;;;;;;;;;;;;5085002;28;19928;-74
2022/10/01 06:40:00;;;;;;;;;;;;;;;;;;5087292;28;19929;-79
2022/10/01 06:42:27;;;;;;;;;;;;;;;;;;5087894;28;19951;-76
2022/10/01 06:44:54;;;;;;;;;;;;;;;;;;5091632;28;19931;-79
2022/10/01 06:47:21;;;;;;;;;;;;;;;;;;5094431;28;19928;-76
2022/10/01 06:49:48;;;;;;;;;;;;;;;;;;5094828;28;19981;-76
2022/10/01 06:55:01;;;;;;;;;;;;;;;;;;5080836;28;19924;-78
2022/10/01 06:57:29;;;;;;;;;;;;;;;;;;5086778;28;20357;-78
2022/10/01 06:59:57;;;;;;;;;;;;;;;;;;5088366;28;19924;-77
2022/10/01 07:02:27;;;;;;;;;;;;;;;;;;5089413;28;19971;-78
2022/10/01 07:04:55;;;;;;;;;;;;;;;;;;5088508;28;19939;-77
2022/10/01 07:07:23;;;;;;;;;;;;;;;;;;5086253;28;20291;-77
2022/10/01 07:09:50;;;;;;;;;;;;;;;;;;5089766;28;20367;-78
2022/10/01 07:12:17;;;;;;;;;;;;;;;;;;5086649;28;19928;-77
2022/10/01 07:14:44;;;;;;;;;;;;;;;;;;5089013;28;19942;-78
2022/10/01 07:17:11;;;;;;;;;;;;;;;;;;5086885;28;19933;-74
2022/10/01 07:19:38;;;;;;;;;;;;;;;;;;5089756;28;19928;-74
2022/10/01 07:22:05;;;;;;;;;;;;;;;;;;5088796;28;20401;-75
2022/10/01 07:24:32;;;;;;;;;;;;;;;;;;5091783;28;19928;-76
2022/10/01 07:26:59;;;;;;;;;;;;;;;;;;5087846;28;19989;-78
2022/10/01 07:29:26;;;;;;;;;;;;;;;;;;5080726;28;19961;-75
2022/10/01 07:31:53;;;;;;;;;;;;;;;;;;5084399;28;20007;-77
2022/10/01 07:34:23;;;;;;;;;;;;;;;;;;5086894;28;19939;-76
2022/10/01 07:36:50;;;;;;;;;;;;;;;;;;5091809;28;19963;-76
2022/10/01 07:39:17;;;;;;;;;;;;;;;;;;5084967;28;20311;-75
2022/10/01 07:41:44;;;;;;;;;;;;;;;;;;5088321;28;19928;-73
2022/10/01 07:44:11;;;;;;;;;;;;;;;;;;5082893;28;20577;-76
2022/10/01 07:46:38;;;;;;;;;;;;;;;;;;5084494;28;19928;-74
2022/10/01 07:49:05;;;;;;;;;;;;;;;;;;5081266;28;19932;-76
2022/10/01 07:51:32;;;;;;;;;;;;;;;;;;5089126;28;19927;-75
2022/10/01 07:53:59;;;;;;;;;;;;;;;;;;5076110;28;19928;-76
2022/10/01 07:56:26;;;;;;;;;;;;;;;;;;5080995;28;20669;-75
2022/10/01 07:58:53;;;;;;;;;;;;;;;;;;5078411;28;19932;-71
2022/10/01 08:01:20;;;;;;;;;;;;;;;;;;5072241;28;20638;-72
2022/10/01 08:03:47;;;;;;;;;;;;;;;;;;5074790;28;19928;-75
2022/10/01 08:06:15;;;;;;;;;;;;;;;;;;5075601;28;20337;-75
2022/10/01 08:08:42;;;;;;;;;;;;;;;;;;5082257;28;19928;-74
2022/10/01 08:11:09;;;;;;;;;;;;;;;;;;5076680;28;19939;-76
2022/10/01 08:13:36;;;;;;;;;;;;;;;;;;5084534;28;20367;-81
2022/10/01 08:16:03;;;;;;;;;;;;;;;;;;5076213;28;19939;-81
2022/10/01 08:18:30;;;;;;;;;;;;;;;;;;5083867;28;20434;-76
2022/10/01 08:20:57;;;;;;;;;;;;;;;;;;5082007;28;19924;-79
2022/10/01 08:23:24;;;;;;;;;;;;;;;;;;5081991;28;19928;-78
2022/10/01 08:25:51;;;;;;;;;;;;;;;;;;5084951;28;19934;-77
2022/10/01 08:28:18;;;;;;;;;;;;;;;;;;5079514;28;20310;-78
2022/10/01 08:30:45;;;;;;;;;;;;;;;;;;5081580;28;19932;-78
2022/10/01 08:33:13;;;;;;;;;;;;;;;;;;5076567;28;19932;-78
2022/10/01 08:35:40;;;;;;;;;;;;;;;;;;5083329;28;19958;-77
2022/10/01 08:38:07;;;;;;;;;;;;;;;;;;5080463;28;19924;-76
2022/10/01 08:40:35;;;;;;;;;;;;;;;;;;5081601;28;19928;-79
2022/10/01 08:43:05;;;;;;;;;;;;;;;;;;5079429;28;20389;-74
2022/10/01 08:45:32;;;;;;;;;;;;;;;;;;5080332;28;19924;-76
2022/10/01 08:47:59;;;;;;;;;;;;;;;;;;5086710;28;19928;-74
2022/10/01 08:50:26;;;;;;;;;;;;;;;;;;5086700;28;19932;-75
2022/10/01 08:52:53;;;;;;;;;;;;;;;;;;5079632;28;20551;-77
2022/10/01 08:55:20;;;;;;;;;;;;;;;;;;5085783;28;19957;-75
2022/10/01 08:57:47;;;;;;;;;;;;;;;;;;5082726;28;19939;-75
2022/10/01 09:00:14;;;;;;;;;;;;;;;;;;5081616;28;19951;-77
2022/10/01 09:02:41;;;;;;;;;;;;;;;;;;5084807;28;19973;-76
2022/10/01 09:05:08;;;;;;;;;;;;;;;;;;5084714;28;19928;-76
2022/10/01 09:07:35;;;;;;;;;;;;;;;;;;5082410;28;20276;-74
2022/10/01 09:10:03;;;;;;;;;;;;;;;;;;5083088;28;19924;-75
2022/10/01 09:12:30;;;;;;;;;;;;;;;;;;5080263;28;19928;-75
2022/10/01 09:14:57;;;;;;;;;;;;;;;;;;5082881;28;19978;-75
2022/10/01 09:17:24;;;;;;;;;;;;;;;;;;5079686;28;19932;-75
2022/10/01 09:19:53;;;;;;;;;;;;;;;;;;5080787;28;20515;-74
2022/10/01 09:22:24;;;;;;;;;;;;;;;;;;5080918;28;19934;-75
2022/10/01 09:24:52;;;;;;;;;;;;;;;;;;5080707;28;19931;-75
2022/10/01 09:27:19;;;;;;;;;;;;;;;;;;5081186;28;19932;-75
2022/10/01 09:29:46;;;;;;;;;;;;;;;;;;5075157;28;19924;-75
2022/10/01 09:32:14;;;;;;;;;;;;;;;;;;5080781;28;20264;-75
2022/10/01 09:34:41;;;;;;;;;;;;;;;;;;5080758;28;19938;-75
2022/10/01 09:37:10;;;;;;;;;;;;;;;;;;5079086;28;19931;-74
2022/10/01 09:39:37;;;;;;;;;;;;;;;;;;5075182;28;20666;-75
2022/10/01 09:42:05;;;;;;;;;;;;;;;;;;5084236;28;19928;-75
2022/10/01 09:44:32;;;;;;;;;;;;;;;;;;5077428;28;20032;-74
2022/10/01 09:46:59;;;;;;;;;;;;;;;;;;5077851;28;20330;-73
2022/10/01 09:49:26;;;;;;;;;;;;;;;;;;5078611;28;19924;-73
2022/10/01 09:51:53;;;;;;;;;;;;;;;;;;5086100;28;19935;-74
2022/10/01 09:54:20;;;;;;;;;;;;;;;;;;5080893;28;19928;-74
2022/10/01 09:56:47;;;;;;;;;;;;;;;;;;5086681;28;19950;-75
2022/10/01 09:59:14;;;;;;;;;;;;;;;;;;5074995;28;20386;-75
2022/10/01 10:01:41;;;;;;;;;;;;;;;;;;5084162;28;19931;-73
2022/10/01 10:04:08;;;;;;;;;;;;;;;;;;5077020;28;19994;-73
2022/10/01 10:06:35;;;;;;;;;;;;;;;;;;5077139;28;19969;-74
2022/10/01 10:09:02;;;;;;;;;;;;;;;;;;5083967;28;19928;-74
2022/10/01 10:11:29;;;;;;;;;;;;;;;;;;5084555;28;19935;-74
2022/10/01 10:13:58;;;;;;;;;;;;;;;;;;5081080;28;19966;-76
2022/10/01 10:16:25;;;;;;;;;;;;;;;;;;5084706;28;19931;-75
2022/10/01 10:18:53;;;;;;;;;;;;;;;;;;5085004;28;19931;-73
2022/10/01 10:21:20;;;;;;;;;;;;;;;;;;5084958;28;19928;-74
2022/10/01 10:23:47;;;;;;;;;;;;;;;;;;5087981;28;20028;-73
2022/10/01 10:26:14;;;;;;;;;;;;;;;;;;5087946;28;19928;-73
2022/10/01 10:28:41;;;;;;;;;;;;;;;;;;5082865;28;19925;-74
2022/10/01 10:31:08;;;;;;;;;;;;;;;;;;5081156;28;19932;-73
2022/10/01 10:33:36;;;;;;;;;;;;;;;;;;5080917;28;19935;-74
2022/10/01 10:36:03;;;;;;;;;;;;;;;;;;5083450;28;19927;-74
2022/10/01 10:38:30;;;;;;;;;;;;;;;;;;5079040;28;19928;-75
2022/10/01 10:40:57;;;;;;;;;;;;;;;;;;5081099;28;19932;-74
2022/10/01 10:43:24;;;;;;;;;;;;;;;;;;5089923;28;19936;-75
2022/10/01 10:45:54;;;;;;;;;;;;;;;;;;5085884;28;20581;-73
2022/10/01 10:48:21;;;;;;;;;;;;;;;;;;5089002;28;19936;-75
2022/10/01 10:50:49;;;;;;;;;;;;;;;;;;5082093;28;19929;-75
2022/10/01 10:53:17;;;;;;;;;;;;;;;;;;5087725;28;19931;-75
2022/10/01 10:55:44;;;;;;;;;;;;;;;;;;5086284;28;19936;-75
2022/10/01 10:58:11;;;;;;;;;;;;;;;;;;5087104;28;20378;-73
2022/10/01 11:00:38;;;;;;;;;;;;;;;;;;5089931;28;20378;-73
2022/10/01 11:03:05;;;;;;;;;;;;;;;;;;5086074;28;19928;-75
2022/10/01 11:05:32;;;;;;;;;;;;;;;;;;5081563;28;19928;-74
2022/10/01 11:07:59;;;;;;;;;;;;;;;;;;5085139;28;20387;-75
2022/10/01 11:10:26;;;;;;;;;;;;;;;;;;5088575;28;19928;-75
2022/10/01 11:12:55;;;;;;;;;;;;;;;;;;5083219;28;19928;-75
2022/10/01 11:15:22;;;;;;;;;;;;;;;;;;5087925;28;20410;-72
2022/10/01 11:17:49;;;;;;;;;;;;;;;;;;5082601;28;19928;-72
2022/10/01 11:20:16;;;;;;;;;;;;;;;;;;5089231;28;19924;-74
2022/10/01 11:22:43;;;;;;;;;;;;;;;;;;5085586;28;19935;-73
2022/10/01 11:25:10;;;;;;;;;;;;;;;;;;5085564;28;19928;-72
2022/10/01 11:27:37;;;;;;;;;;;;;;;;;;5082421;28;20383;-71
2022/10/01 11:30:05;;;;;;;;;;;;;;;;;;5091148;28;19977;-72
2022/10/01 11:32:32;;;;;;;;;;;;;;;;;;5084386;28;19928;-73
2022/10/01 11:34:59;;;;;;;;;;;;;;;;;;5086390;28;19928;-72
2022/10/01 11:37:27;;;;;;;;;;;;;;;;;;5088131;28;19932;-73
2022/10/01 11:39:54;;;;;;;;;;;;;;;;;;5083801;28;19932;-72
2022/10/01 11:42:21;;;;;;;;;;;;;;;;;;5081802;28;19925;-74
2022/10/01 11:44:48;;;;;;;;;;;;;;;;;;5084767;28;20008;-74
2022/10/01 11:47:15;;;;;;;;;;;;;;;;;;5078102;28;20324;-74
2022/10/01 11:49:42;;;;;;;;;;;;;;;;;;5084439;28;20290;-75
2022/10/01 11:52:11;;;;;;;;;;;;;;;;;;5087317;28;20228;-75
2022/10/01 11:54:38;;;;;;;;;;;;;;;;;;5083488;28;20065;-75
2022/10/01 11:59:50;;;;;;;;;;;;;;;;;;5085091;28;19920;-75
2022/10/01 12:02:17;;;;;;;;;;;;;;;;;;5088715;28;20386;-76
2022/10/01 12:04:45;;;;;;;;;;;;;;;;;;5085428;28;20002;-76
2022/10/01 12:07:12;;;;;;;;;;;;;;;;;;5080369;28;19935;-75
2022/10/01 12:09:39;;;;;;;;;;;;;;;;;;5083042;28;19946;-74
2022/10/01 12:12:06;;;;;;;;;;;;;;;;;;5082612;28;19924;-76
2022/10/01 12:14:33;;;;;;;;;;;;;;;;;;5083998;28;19963;-75
2022/10/01 12:17:00;;;;;;;;;;;;;;;;;;5084587;28;19932;-77
2022/10/01 12:19:28;;;;;;;;;;;;;;;;;;5084419;28;19928;-76
2022/10/01 12:21:55;;;;;;;;;;;;;;;;;;5085211;28;19928;-76
2022/10/01 12:24:22;;;;;;;;;;;;;;;;;;5081996;28;19931;-76
2022/10/01 12:26:49;;;;;;;;;;;;;;;;;;5076284;28;19929;-78
2022/10/01 12:29:16;;;;;;;;;;;;;;;;;;5083262;28;19928;-76
2022/10/01 12:31:43;;;;;;;;;;;;;;;;;;5089604;28;19948;-75
2022/10/01 12:34:10;;;;;;;;;;;;;;;;;;5087342;28;21705;-76
2022/10/01 12:36:37;;;;;;;;;;;;;;;;;;5081526;28;19924;-75
2022/10/01 12:39:04;;;;;;;;;;;;;;;;;;5087501;28;21205;-77
2022/10/01 12:41:31;;;;;;;;;;;;;;;;;;5092472;28;19928;-75
2022/10/01 12:43:59;;;;;;;;;;;;;;;;;;5085029;28;19935;-77
2022/10/01 12:46:26;;;;;;;;;;;;;;;;;;5094548;28;19927;-77
2022/10/01 12:48:53;;;;;;;;;;;;;;;;;;5084659;28;20418;-75
2022/10/01 12:51:20;;;;;;;;;;;;;;;;;;5083176;28;19928;-74
2022/10/01 12:53:47;;;;;;;;;;;;;;;;;;5082135;28;20314;-79
2022/10/01 12:56:15;;;;;;;;;;;;;;;;;;5084161;28;19932;-74
2022/10/01 12:58:42;;;;;;;;;;;;;;;;;;5079487;28;19936;-75
2022/10/01 13:01:10;;;;;;;;;;;;;;;;;;5073153;28;20415;-76
2022/10/01 13:03:37;;;;;;;;;;;;;;;;;;5083899;28;19924;-76
2022/10/01 13:06:04;;;;;;;;;;;;;;;;;;5084201;28;20357;-76
2022/10/01 13:08:31;;;;;;;;;;;;;;;;;;5082162;28;19935;-74
2022/10/01 13:10:58;;;;;;;;;;;;;;;;;;5079638;28;19929;-74
2022/10/01 13:13:25;;;;;;;;;;;;;;;;;;5085240;28;19928;-74
2022/10/01 13:15:52;;;;;;;;;;;;;;;;;;5084965;28;19936;-76
2022/10/01 13:18:19;;;;;;;;;;;;;;;;;;5084110;28;20587;-74
2022/10/01 13:20:50;;;;;;;;;;;;;;;;;;5092187;28;19932;-74
2022/10/01 13:23:17;;;;;;;;;;;;;;;;;;5082873;28;19939;-74
2022/10/01 13:25:45;;;;;;;;;;;;;;;;;;5083298;28;20394;-75
2022/10/01 13:28:12;;;;;;;;;;;;;;;;;;5089846;28;19923;-73
2022/10/01 13:30:39;;;;;;;;;;;;;;;;;;5073637;28;19974;-72
2022/10/01 13:33:06;;;;;;;;;;;;;;;;;;5077757;28;19928;-75
2022/10/01 13:35:33;;;;;;;;;;;;;;;;;;5081572;28;20477;-74
2022/10/01 13:38:00;;;;;;;;;;;;;;;;;;5082984;28;20406;-76
2022/10/01 13:40:27;;;;;;;;;;;;;;;;;;5079601;28;19924;-74
2022/10/01 13:42:54;;;;;;;;;;;;;;;;;;5084864;28;19928;-75
2022/10/01 13:45:21;;;;;;;;;;;;;;;;;;5090849;28;19923;-73
2022/10/01 13:47:48;;;;;;;;;;;;;;;;;;5074394;28;19932;-74
2022/10/01 13:50:15;;;;;;;;;;;;;;;;;;5088463;28;19935;-72
2022/10/01 13:52:43;;;;;;;;;;;;;;;;;;5084795;28;19996;-74
2022/10/01 13:55:09;;;;;;;;;;;;;;;;;;5082083;28;19982;-73
2022/10/01 13:57:36;;;;;;;;;;;;;;;;;;5088821;28;19929;-74
2022/10/01 14:00:04;;;;;;;;;;;;;;;;;;5088459;28;19928;-74
2022/10/01 14:02:31;;;;;;;;;;;;;;;;;;5088767;28;19939;-73
2022/10/01 14:04:58;;;;;;;;;;;;;;;;;;5089945;28;19924;-76
2022/10/01 14:07:25;;;;;;;;;;;;;;;;;;5087984;28;19950;-73
2022/10/01 14:09:52;;;;;;;;;;;;;;;;;;5086439;28;20014;-72
2022/10/01 14:17:48;;;;;;;;;;;;;;;;;;5088947;28;20002;-75
2022/10/01 14:20:15;;;;;;;;;;;;;;;;;;5086766;28;19924;-73
2022/10/01 14:22:42;;;;;;;;;;;;;;;;;;5089712;28;19924;-73
2022/10/01 14:25:09;;;;;;;;;;;;;;;;;;5088207;28;19928;-73
2022/10/01 14:27:36;;;;;;;;;;;;;;;;;;5083704;28;19932;-75
2022/10/01 14:30:04;;;;;;;;;;;;;;;;;;5087747;28;20407;-74
2022/10/01 14:32:31;;;;;;;;;;;;;;;;;;5079068;28;19928;-73
2022/10/01 14:34:58;;;;;;;;;;;;;;;;;;5083959;28;20385;-73
2022/10/01 14:37:25;;;;;;;;;;;;;;;;;;5082374;28;19933;-72
2022/10/01 14:39:52;;;;;;;;;;;;;;;;;;5085435;28;20398;-72
2022/10/01 14:42:19;;;;;;;;;;;;;;;;;;5085237;28;19928;-72
2022/10/01 14:44:46;;;;;;;;;;;;;;;;;;5090025;28;19932;-73
2022/10/01 14:47:13;;;;;;;;;;;;;;;;;;5088992;28;20018;-73
2022/10/01 14:49:40;;;;;;;;;;;;;;;;;;5086850;28;19935;-72
2022/10/01 14:52:07;;;;;;;;;;;;;;;;;;5087159;28;20303;-73
2022/10/01 14:54:34;;;;;;;;;;;;;;;;;;5085203;28;19924;-73
2022/10/01 14:57:01;;;;;;;;;;;;;;;;;;5087168;28;19928;-72
2022/10/01 14:59:28;;;;;;;;;;;;;;;;;;5084540;28;19949;-73
2022/10/01 15:01:55;;;;;;;;;;;;;;;;;;5086865;28;20422;-72
2022/10/01 15:04:22;;;;;;;;;;;;;;;;;;5084387;28;19929;-72
2022/10/01 15:06:49;;;;;;;;;;;;;;;;;;5086890;28;19958;-73
2022/10/01 15:09:18;;;;;;;;;;;;;;;;;;5087134;28;19934;-72
2022/10/01 15:11:45;;;;;;;;;;;;;;;;;;5085301;28;19976;-72
2022/10/01 15:14:12;;;;;;;;;;;;;;;;;;5086859;28;19932;-71
2022/10/01 15:16:39;;;;;;;;;;;;;;;;;;5084179;28;20603;-72
2022/10/01 15:19:06;;;;;;;;;;;;;;;;;;5089307;28;20409;-72
2022/10/01 15:21:33;;;;;;;;;;;;;;;;;;5083053;28;19928;-72
2022/10/01 15:24:01;;;;;;;;;;;;;;;;;;5086445;28;19939;-72
2022/10/01 15:26:28;;;;;;;;;;;;;;;;;;5084054;28;19966;-73
2022/10/01 15:28:55;;;;;;;;;;;;;;;;;;5078630;28;20422;-72
2022/10/01 15:31:22;;;;;;;;;;;;;;;;;;5084864;28;19989;-72
2022/10/01 15:33:49;;;;;;;;;;;;;;;;;;5075965;28;20310;-73
2022/10/01 15:36:16;;;;;;;;;;;;;;;;;;5087354;28;19928;-74
2022/10/01 15:38:44;;;;;;;;;;;;;;;;;;5091709;28;20362;-73
2022/10/01 15:41:11;;;;;;;;;;;;;;;;;;5081978;28;19936;-72
2022/10/01 15:43:39;;;;;;;;;;;;;;;;;;5090739;28;19981;-72
2022/10/01 15:46:06;;;;;;;;;;;;;;;;;;5085799;28;19928;-72
2022/10/01 15:48:33;;;;;;;;;;;;;;;;;;5088087;28;19928;-72
2022/10/01 15:51:00;;;;;;;;;;;;;;;;;;5084218;28;19963;-71
2022/10/01 15:53:28;;;;;;;;;;;;;;;;;;5086388;28;20390;-73
2022/10/01 15:55:55;;;;;;;;;;;;;;;;;;5083896;28;20459;-72
2022/10/01 15:58:22;;;;;;;;;;;;;;;;;;5086318;28;19928;-71
2022/10/01 16:00:49;;;;;;;;;;;;;;;;;;5083408;28;19932;-72
2022/10/01 16:03:16;;;;;;;;;;;;;;;;;;5086248;28;19931;-72
2022/10/01 16:05:43;;;;;;;;;;;;;;;;;;5084504;28;20367;-72
2022/10/01 16:08:11;;;;;;;;;;;;;;;;;;5083800;28;19935;-72
2022/10/01 16:10:39;;;;;;;;;;;;;;;;;;5082886;28;19931;-73
2022/10/01 16:13:06;;;;;;;;;;;;;;;;;;5085663;28;20018;-72
2022/10/01 16:15:33;;;;;;;;;;;;;;;;;;5084160;28;20393;-71
2022/10/01 16:18:01;;;;;;;;;;;;;;;;;;5086508;28;19939;-73
2022/10/01 16:20:28;;;;;;;;;;;;;;;;;;5080400;28;19924;-73
2022/10/01 16:22:55;;;;;;;;;;;;;;;;;;5082077;28;19928;-72
2022/10/01 16:25:22;;;;;;;;;;;;;;;;;;5080711;28;19928;-72
2022/10/01 16:27:49;;;;;;;;;;;;;;;;;;5086041;28;20393;-72
2022/10/01 16:30:16;;;;;;;;;;;;;;;;;;5085378;28;19935;-71
2022/10/01 16:32:43;;;;;;;;;;;;;;;;;;5076244;28;19935;-71
2022/10/01 16:35:10;;;;;;;;;;;;;;;;;;5081343;28;19928;-71
2022/10/01 16:37:37;;;;;;;;;;;;;;;;;;5084090;28;19938;-72
2022/10/01 16:40:04;;;;;;;;;;;;;;;;;;5087007;28;20382;-71
2022/10/01 16:42:32;;;;;;;;;;;;;;;;;;5084114;28;19928;-71
2022/10/01 16:44:59;;;;;;;;;;;;;;;;;;5089203;28;20271;-72
2022/10/01 16:47:27;;;;;;;;;;;;;;;;;;5087112;28;19928;-71
2022/10/01 16:49:54;;;;;;;;;;;;;;;;;;5082899;28;19932;-71
2022/10/01 16:52:21;;;;;;;;;;;;;;;;;;5081576;28;19928;-71
2022/10/01 16:54:48;;;;;;;;;;;;;;;;;;5083603;28;20011;-72
2022/10/01 16:57:15;;;;;;;;;;;;;;;;;;5082432;28;19928;-71